sensor_id;sensor_type;location;lat;lon;timestamp;P1;durP1;ratioP1;P2;durP2;ratioP2
31910;SDS011;18457;52.432;16.914;2023-07-13T00:01:22;4.10;;;2.20;;
31910;SDS011;18457;52.432;16.914;2023-07-13T00:03:53;2.90;;;1.90;;
31910;SDS011;18457;52.432;16.914;2023-07-13T00:06:26;2.90;;;2.30;;
31910;SDS011;18457;52.432;16.914;2023-07-13T00:09:02;5.30;;;2.20;;
31910;SDS011;18457;52.432;16.914;2023-07-13T00:11:33;4.00;;;2.10;;
31910;SDS011;18457;52.432;16.914;2023-07-13T00:14:05;2.80;;;2.00;;
31910;SDS011;18457;52.432;16.914;2023-07-13T00:16:38;2.10;;;1.90;;
31910;SDS011;18457;52.432;16.914;2023-07-13T00:19:13;2.30;;;2.10;;
31910;SDS011;18457;52.432;16.914;2023-07-13T00:21:45;2.20;;;2.00;;
31910;SDS011;18457;52.432;16.914;2023-07-13T00:24:17;7.10;;;2.10;;
31910;SDS011;18457;52.432;16.914;2023-07-13T00:26:53;2.60;;;2.20;;
31910;SDS011;18457;52.432;16.914;2023-07-13T00:29:26;3.50;;;1.90;;
31910;SDS011;18457;52.432;16.914;2023-07-13T00:31:59;6.30;;;2.00;;
31910;SDS011;18457;52.432;16.914;2023-07-13T00:34:31;4.00;;;2.30;;
31910;SDS011;18457;52.432;16.914;2023-07-13T00:37:04;5.30;;;2.50;;
31910;SDS011;18457;52.432;16.914;2023-07-13T00:39:37;5.80;;;2.20;;
31910;SDS011;18457;52.432;16.914;2023-07-13T00:42:09;2.80;;;2.20;;
31910;SDS011;18457;52.432;16.914;2023-07-13T00:44:41;5.70;;;2.40;;
31910;SDS011;18457;52.432;16.914;2023-07-13T00:47:26;4.60;;;2.50;;
31910;SDS011;18457;52.432;16.914;2023-07-13T00:49:58;5.00;;;2.60;;
31910;SDS011;18457;52.432;16.914;2023-07-13T00:52:31;3.50;;;2.40;;
31910;SDS011;18457;52.432;16.914;2023-07-13T00:55:06;5.30;;;2.50;;
31910;SDS011;18457;52.432;16.914;2023-07-13T00:57:39;3.00;;;2.20;;
31910;SDS011;18457;52.432;16.914;2023-07-13T01:00:12;2.10;;;1.90;;
31910;SDS011;18457;52.432;16.914;2023-07-13T01:02:45;7.00;;;2.30;;
31910;SDS011;18457;52.432;16.914;2023-07-13T01:05:20;2.50;;;2.00;;
31910;SDS011;18457;52.432;16.914;2023-07-13T01:07:53;2.60;;;2.20;;
31910;SDS011;18457;52.432;16.914;2023-07-13T01:10:25;3.40;;;2.50;;
31910;SDS011;18457;52.432;16.914;2023-07-13T01:12:57;5.50;;;2.10;;
31910;SDS011;18457;52.432;16.914;2023-07-13T01:15:37;3.20;;;2.40;;
31910;SDS011;18457;52.432;16.914;2023-07-13T01:18:13;2.50;;;2.10;;
31910;SDS011;18457;52.432;16.914;2023-07-13T01:20:52;2.60;;;2.00;;
31910;SDS011;18457;52.432;16.914;2023-07-13T01:23:26;3.90;;;2.40;;
31910;SDS011;18457;52.432;16.914;2023-07-13T01:25:59;3.40;;;2.10;;
31910;SDS011;18457;52.432;16.914;2023-07-13T01:28:31;3.80;;;2.60;;
31910;SDS011;18457;52.432;16.914;2023-07-13T01:31:08;6.00;;;2.70;;
31910;SDS011;18457;52.432;16.914;2023-07-13T01:33:40;7.00;;;2.90;;
31910;SDS011;18457;52.432;16.914;2023-07-13T01:38:43;5.10;;;2.60;;
31910;SDS011;18457;52.432;16.914;2023-07-13T01:41:15;3.80;;;2.80;;
31910;SDS011;18457;52.432;16.914;2023-07-13T01:43:47;4.80;;;3.00;;
31910;SDS011;18457;52.432;16.914;2023-07-13T01:46:19;3.00;;;2.60;;
31910;SDS011;18457;52.432;16.914;2023-07-13T01:48:52;8.30;;;2.60;;
31910;SDS011;18457;52.432;16.914;2023-07-13T01:51:24;4.10;;;2.80;;
31910;SDS011;18457;52.432;16.914;2023-07-13T01:53:56;6.00;;;2.70;;
31910;SDS011;18457;52.432;16.914;2023-07-13T01:56:28;4.70;;;2.30;;
31910;SDS011;18457;52.432;16.914;2023-07-13T01:59:00;5.30;;;2.90;;
31910;SDS011;18457;52.432;16.914;2023-07-13T02:01:32;5.70;;;3.40;;
31910;SDS011;18457;52.432;16.914;2023-07-13T02:04:04;3.00;;;2.50;;
31910;SDS011;18457;52.432;16.914;2023-07-13T02:06:36;4.90;;;2.60;;
31910;SDS011;18457;52.432;16.914;2023-07-13T02:09:08;4.60;;;2.50;;
31910;SDS011;18457;52.432;16.914;2023-07-13T02:11:40;5.90;;;2.60;;
31910;SDS011;18457;52.432;16.914;2023-07-13T02:14:12;3.30;;;2.80;;
31910;SDS011;18457;52.432;16.914;2023-07-13T02:16:45;2.90;;;2.30;;
31910;SDS011;18457;52.432;16.914;2023-07-13T02:21:48;7.30;;;2.90;;
31910;SDS011;18457;52.432;16.914;2023-07-13T02:24:21;4.40;;;2.70;;
31910;SDS011;18457;52.432;16.914;2023-07-13T02:26:52;4.60;;;2.40;;
31910;SDS011;18457;52.432;16.914;2023-07-13T02:29:25;3.70;;;2.60;;
31910;SDS011;18457;52.432;16.914;2023-07-13T02:31:56;5.00;;;3.10;;
31910;SDS011;18457;52.432;16.914;2023-07-13T02:34:28;3.30;;;2.70;;
31910;SDS011;18457;52.432;16.914;2023-07-13T02:37:01;7.10;;;3.70;;
31910;SDS011;18457;52.432;16.914;2023-07-13T02:39:35;4.60;;;2.90;;
31910;SDS011;18457;52.432;16.914;2023-07-13T02:42:07;5.20;;;2.90;;
31910;SDS011;18457;52.432;16.914;2023-07-13T02:44:39;4.90;;;2.90;;
31910;SDS011;18457;52.432;16.914;2023-07-13T02:47:11;4.70;;;3.10;;
31910;SDS011;18457;52.432;16.914;2023-07-13T02:49:43;4.30;;;2.90;;
31910;SDS011;18457;52.432;16.914;2023-07-13T02:52:15;4.10;;;3.20;;
31910;SDS011;18457;52.432;16.914;2023-07-13T02:54:47;5.50;;;3.10;;
31910;SDS011;18457;52.432;16.914;2023-07-13T02:57:18;4.60;;;2.50;;
31910;SDS011;18457;52.432;16.914;2023-07-13T02:59:51;12.50;;;3.30;;
31910;SDS011;18457;52.432;16.914;2023-07-13T03:02:23;5.70;;;3.60;;
31910;SDS011;18457;52.432;16.914;2023-07-13T03:04:58;8.60;;;3.20;;
31910;SDS011;18457;52.432;16.914;2023-07-13T03:07:31;3.80;;;3.00;;
31910;SDS011;18457;52.432;16.914;2023-07-13T03:10:03;4.50;;;3.00;;
31910;SDS011;18457;52.432;16.914;2023-07-13T03:12:42;4.60;;;3.10;;
31910;SDS011;18457;52.432;16.914;2023-07-13T03:15:24;4.10;;;3.00;;
31910;SDS011;18457;52.432;16.914;2023-07-13T03:17:57;4.70;;;3.20;;
31910;SDS011;18457;52.432;16.914;2023-07-13T03:20:31;4.00;;;3.20;;
31910;SDS011;18457;52.432;16.914;2023-07-13T03:23:04;5.70;;;4.30;;
31910;SDS011;18457;52.432;16.914;2023-07-13T03:25:36;11.40;;;4.20;;
31910;SDS011;18457;52.432;16.914;2023-07-13T03:28:08;7.40;;;4.90;;
31910;SDS011;18457;52.432;16.914;2023-07-13T03:30:40;8.70;;;5.60;;
31910;SDS011;18457;52.432;16.914;2023-07-13T03:33:12;9.60;;;7.60;;
31910;SDS011;18457;52.432;16.914;2023-07-13T03:35:45;10.70;;;6.50;;
31910;SDS011;18457;52.432;16.914;2023-07-13T03:38:17;8.80;;;6.40;;
31910;SDS011;18457;52.432;16.914;2023-07-13T03:40:48;10.80;;;6.70;;
31910;SDS011;18457;52.432;16.914;2023-07-13T03:43:20;10.90;;;6.80;;
31910;SDS011;18457;52.432;16.914;2023-07-13T03:45:53;9.60;;;7.00;;
31910;SDS011;18457;52.432;16.914;2023-07-13T03:48:26;8.90;;;6.60;;
31910;SDS011;18457;52.432;16.914;2023-07-13T03:50:57;8.30;;;6.70;;
31910;SDS011;18457;52.432;16.914;2023-07-13T03:53:30;8.10;;;6.40;;
31910;SDS011;18457;52.432;16.914;2023-07-13T03:56:02;9.60;;;7.10;;
31910;SDS011;18457;52.432;16.914;2023-07-13T03:58:38;8.50;;;5.70;;
31910;SDS011;18457;52.432;16.914;2023-07-13T04:01:23;8.90;;;5.20;;
31910;SDS011;18457;52.432;16.914;2023-07-13T04:03:55;9.60;;;4.90;;
31910;SDS011;18457;52.432;16.914;2023-07-13T04:06:32;13.50;;;5.30;;
31910;SDS011;18457;52.432;16.914;2023-07-13T04:09:04;6.30;;;5.30;;
31910;SDS011;18457;52.432;16.914;2023-07-13T04:11:36;8.60;;;5.50;;
31910;SDS011;18457;52.432;16.914;2023-07-13T04:14:08;7.60;;;4.80;;
31910;SDS011;18457;52.432;16.914;2023-07-13T04:16:40;10.20;;;5.20;;
31910;SDS011;18457;52.432;16.914;2023-07-13T04:19:12;8.00;;;5.70;;
31910;SDS011;18457;52.432;16.914;2023-07-13T04:21:44;7.30;;;5.40;;
31910;SDS011;18457;52.432;16.914;2023-07-13T04:24:17;9.10;;;4.90;;
31910;SDS011;18457;52.432;16.914;2023-07-13T04:26:49;8.70;;;5.00;;
31910;SDS011;18457;52.432;16.914;2023-07-13T04:29:21;7.70;;;5.40;;
31910;SDS011;18457;52.432;16.914;2023-07-13T04:31:52;8.80;;;6.00;;
31910;SDS011;18457;52.432;16.914;2023-07-13T04:34:24;9.50;;;5.10;;
31910;SDS011;18457;52.432;16.914;2023-07-13T04:36:56;14.20;;;6.00;;
31910;SDS011;18457;52.432;16.914;2023-07-13T04:39:28;14.60;;;5.80;;
31910;SDS011;18457;52.432;16.914;2023-07-13T04:42:00;13.90;;;6.80;;
31910;SDS011;18457;52.432;16.914;2023-07-13T04:44:31;11.80;;;5.80;;
31910;SDS011;18457;52.432;16.914;2023-07-13T04:47:04;10.70;;;7.20;;
31910;SDS011;18457;52.432;16.914;2023-07-13T04:49:36;17.00;;;7.20;;
31910;SDS011;18457;52.432;16.914;2023-07-13T04:52:08;9.90;;;6.80;;
31910;SDS011;18457;52.432;16.914;2023-07-13T04:54:40;10.40;;;6.90;;
31910;SDS011;18457;52.432;16.914;2023-07-13T04:57:12;11.30;;;7.60;;
31910;SDS011;18457;52.432;16.914;2023-07-13T04:59:44;12.60;;;7.50;;
31910;SDS011;18457;52.432;16.914;2023-07-13T05:02:16;13.30;;;7.70;;
31910;SDS011;18457;52.432;16.914;2023-07-13T05:04:50;10.60;;;8.10;;
31910;SDS011;18457;52.432;16.914;2023-07-13T05:07:22;13.40;;;7.90;;
31910;SDS011;18457;52.432;16.914;2023-07-13T05:09:54;10.50;;;7.80;;
31910;SDS011;18457;52.432;16.914;2023-07-13T05:12:26;11.60;;;7.00;;
31910;SDS011;18457;52.432;16.914;2023-07-13T05:14:58;12.50;;;8.10;;
31910;SDS011;18457;52.432;16.914;2023-07-13T05:20:02;9.10;;;7.30;;
31910;SDS011;18457;52.432;16.914;2023-07-13T05:22:34;10.40;;;8.20;;
31910;SDS011;18457;52.432;16.914;2023-07-13T05:25:07;12.60;;;8.00;;
31910;SDS011;18457;52.432;16.914;2023-07-13T05:27:39;11.10;;;8.30;;
31910;SDS011;18457;52.432;16.914;2023-07-13T05:30:11;10.40;;;7.90;;
31910;SDS011;18457;52.432;16.914;2023-07-13T05:32:44;12.80;;;7.60;;
31910;SDS011;18457;52.432;16.914;2023-07-13T05:35:16;11.60;;;7.80;;
31910;SDS011;18457;52.432;16.914;2023-07-13T05:37:48;11.10;;;7.40;;
31910;SDS011;18457;52.432;16.914;2023-07-13T05:40:19;14.30;;;8.30;;
31910;SDS011;18457;52.432;16.914;2023-07-13T05:42:51;11.10;;;7.60;;
31910;SDS011;18457;52.432;16.914;2023-07-13T05:45:23;12.20;;;7.00;;
31910;SDS011;18457;52.432;16.914;2023-07-13T05:47:55;16.00;;;7.00;;
31910;SDS011;18457;52.432;16.914;2023-07-13T05:50:27;15.70;;;6.70;;
31910;SDS011;18457;52.432;16.914;2023-07-13T05:52:59;11.30;;;7.00;;
31910;SDS011;18457;52.432;16.914;2023-07-13T05:55:31;12.20;;;6.60;;
31910;SDS011;18457;52.432;16.914;2023-07-13T05:58:04;16.40;;;8.20;;
31910;SDS011;18457;52.432;16.914;2023-07-13T06:03:07;11.30;;;6.50;;
31910;SDS011;18457;52.432;16.914;2023-07-13T06:05:39;24.00;;;7.30;;
31910;SDS011;18457;52.432;16.914;2023-07-13T06:08:12;22.10;;;7.70;;
31910;SDS011;18457;52.432;16.914;2023-07-13T06:10:44;17.70;;;7.50;;
31910;SDS011;18457;52.432;16.914;2023-07-13T06:13:16;14.20;;;7.50;;
31910;SDS011;18457;52.432;16.914;2023-07-13T06:15:49;20.80;;;7.20;;
31910;SDS011;18457;52.432;16.914;2023-07-13T06:18:21;20.90;;;8.60;;
31910;SDS011;18457;52.432;16.914;2023-07-13T06:20:53;25.60;;;8.20;;
31910;SDS011;18457;52.432;16.914;2023-07-13T06:23:24;21.40;;;10.80;;
31910;SDS011;18457;52.432;16.914;2023-07-13T06:25:56;17.60;;;8.70;;
31910;SDS011;18457;52.432;16.914;2023-07-13T06:28:29;15.10;;;8.00;;
31910;SDS011;18457;52.432;16.914;2023-07-13T06:31:01;14.10;;;8.50;;
31910;SDS011;18457;52.432;16.914;2023-07-13T06:33:35;14.30;;;8.50;;
31910;SDS011;18457;52.432;16.914;2023-07-13T06:36:07;11.80;;;8.10;;
31910;SDS011;18457;52.432;16.914;2023-07-13T06:38:39;20.90;;;9.30;;
31910;SDS011;18457;52.432;16.914;2023-07-13T06:41:11;15.30;;;8.30;;
31910;SDS011;18457;52.432;16.914;2023-07-13T06:43:44;18.20;;;8.00;;
31910;SDS011;18457;52.432;16.914;2023-07-13T06:46:16;17.20;;;8.50;;
31910;SDS011;18457;52.432;16.914;2023-07-13T06:48:48;10.80;;;7.60;;
31910;SDS011;18457;52.432;16.914;2023-07-13T06:51:20;17.40;;;8.20;;
31910;SDS011;18457;52.432;16.914;2023-07-13T06:53:52;20.50;;;9.60;;
31910;SDS011;18457;52.432;16.914;2023-07-13T06:56:25;17.60;;;7.60;;
31910;SDS011;18457;52.432;16.914;2023-07-13T06:58:57;20.70;;;7.80;;
31910;SDS011;18457;52.432;16.914;2023-07-13T07:01:28;19.10;;;7.50;;
31910;SDS011;18457;52.432;16.914;2023-07-13T07:04:00;18.00;;;8.80;;
31910;SDS011;18457;52.432;16.914;2023-07-13T07:06:33;14.50;;;8.20;;
31910;SDS011;18457;52.432;16.914;2023-07-13T07:09:04;13.30;;;8.70;;
31910;SDS011;18457;52.432;16.914;2023-07-13T07:11:38;17.50;;;8.00;;
31910;SDS011;18457;52.432;16.914;2023-07-13T07:14:31;15.60;;;8.10;;
31910;SDS011;18457;52.432;16.914;2023-07-13T07:17:04;20.70;;;8.10;;
31910;SDS011;18457;52.432;16.914;2023-07-13T07:19:37;17.90;;;8.10;;
31910;SDS011;18457;52.432;16.914;2023-07-13T07:22:09;12.90;;;7.80;;
31910;SDS011;18457;52.432;16.914;2023-07-13T07:24:41;18.00;;;9.40;;
31910;SDS011;18457;52.432;16.914;2023-07-13T07:27:13;17.90;;;8.30;;
31910;SDS011;18457;52.432;16.914;2023-07-13T07:29:48;12.40;;;7.60;;
31910;SDS011;18457;52.432;16.914;2023-07-13T07:32:32;14.60;;;7.00;;
31910;SDS011;18457;52.432;16.914;2023-07-13T07:35:07;15.10;;;8.30;;
31910;SDS011;18457;52.432;16.914;2023-07-13T07:37:39;9.50;;;6.70;;
31910;SDS011;18457;52.432;16.914;2023-07-13T07:40:14;9.60;;;6.00;;
31910;SDS011;18457;52.432;16.914;2023-07-13T07:42:49;10.20;;;5.90;;
31910;SDS011;18457;52.432;16.914;2023-07-13T07:45:21;8.70;;;5.00;;
31910;SDS011;18457;52.432;16.914;2023-07-13T07:47:56;8.20;;;4.90;;
31910;SDS011;18457;52.432;16.914;2023-07-13T07:50:28;8.10;;;5.60;;
31910;SDS011;18457;52.432;16.914;2023-07-13T07:53:01;10.30;;;5.40;;
31910;SDS011;18457;52.432;16.914;2023-07-13T07:55:36;8.90;;;5.40;;
31910;SDS011;18457;52.432;16.914;2023-07-13T07:58:11;9.60;;;5.40;;
31910;SDS011;18457;52.432;16.914;2023-07-13T08:01:03;7.20;;;5.50;;
31910;SDS011;18457;52.432;16.914;2023-07-13T08:03:38;6.00;;;4.70;;
31910;SDS011;18457;52.432;16.914;2023-07-13T08:06:13;8.90;;;4.80;;
31910;SDS011;18457;52.432;16.914;2023-07-13T08:08:51;8.30;;;4.90;;
31910;SDS011;18457;52.432;16.914;2023-07-13T08:11:24;12.00;;;4.20;;
31910;SDS011;18457;52.432;16.914;2023-07-13T08:13:59;7.30;;;4.50;;
31910;SDS011;18457;52.432;16.914;2023-07-13T08:16:31;6.40;;;3.80;;
31910;SDS011;18457;52.432;16.914;2023-07-13T08:19:03;6.80;;;4.80;;
31910;SDS011;18457;52.432;16.914;2023-07-13T08:21:35;7.10;;;4.20;;
31910;SDS011;18457;52.432;16.914;2023-07-13T08:24:07;7.00;;;4.00;;
31910;SDS011;18457;52.432;16.914;2023-07-13T08:26:42;7.00;;;4.30;;
31910;SDS011;18457;52.432;16.914;2023-07-13T08:29:14;5.00;;;4.30;;
31910;SDS011;18457;52.432;16.914;2023-07-13T08:31:46;7.10;;;4.90;;
31910;SDS011;18457;52.432;16.914;2023-07-13T08:34:18;6.20;;;4.60;;
31910;SDS011;18457;52.432;16.914;2023-07-13T08:36:50;7.00;;;4.90;;
31910;SDS011;18457;52.432;16.914;2023-07-13T08:39:21;7.00;;;5.00;;
31910;SDS011;18457;52.432;16.914;2023-07-13T08:41:55;8.10;;;4.90;;
31910;SDS011;18457;52.432;16.914;2023-07-13T08:44:36;9.70;;;5.00;;
31910;SDS011;18457;52.432;16.914;2023-07-13T08:47:17;6.70;;;4.60;;
31910;SDS011;18457;52.432;16.914;2023-07-13T08:49:53;7.60;;;4.90;;
31910;SDS011;18457;52.432;16.914;2023-07-13T08:52:28;7.80;;;5.20;;
31910;SDS011;18457;52.432;16.914;2023-07-13T08:55:05;16.30;;;6.30;;
31910;SDS011;18457;52.432;16.914;2023-07-13T08:57:44;7.40;;;5.50;;
31910;SDS011;18457;52.432;16.914;2023-07-13T09:00:23;10.40;;;5.50;;
31910;SDS011;18457;52.432;16.914;2023-07-13T09:03:16;8.90;;;5.40;;
31910;SDS011;18457;52.432;16.914;2023-07-13T09:05:52;9.60;;;4.70;;
31910;SDS011;18457;52.432;16.914;2023-07-13T09:08:36;10.90;;;5.40;;
31910;SDS011;18457;52.432;16.914;2023-07-13T09:11:19;7.90;;;5.00;;
31910;SDS011;18457;52.432;16.914;2023-07-13T09:14:00;8.90;;;5.70;;
31910;SDS011;18457;52.432;16.914;2023-07-13T09:16:36;9.90;;;5.60;;
31910;SDS011;18457;52.432;16.914;2023-07-13T09:19:11;10.50;;;5.90;;
31910;SDS011;18457;52.432;16.914;2023-07-13T09:21:51;7.30;;;6.00;;
31910;SDS011;18457;52.432;16.914;2023-07-13T09:24:36;10.90;;;5.80;;
31910;SDS011;18457;52.432;16.914;2023-07-13T09:27:14;10.00;;;5.80;;
31910;SDS011;18457;52.432;16.914;2023-07-13T09:29:50;7.40;;;5.90;;
31910;SDS011;18457;52.432;16.914;2023-07-13T09:32:31;11.00;;;5.50;;
31910;SDS011;18457;52.432;16.914;2023-07-13T09:35:07;13.50;;;6.10;;
31910;SDS011;18457;52.432;16.914;2023-07-13T09:37:43;10.60;;;5.30;;
31910;SDS011;18457;52.432;16.914;2023-07-13T09:40:20;7.00;;;5.30;;
31910;SDS011;18457;52.432;16.914;2023-07-13T09:42:55;7.40;;;6.00;;
31910;SDS011;18457;52.432;16.914;2023-07-13T09:45:29;8.50;;;5.90;;
31910;SDS011;18457;52.432;16.914;2023-07-13T09:48:05;7.60;;;5.30;;
31910;SDS011;18457;52.432;16.914;2023-07-13T09:50:41;6.10;;;5.00;;
31910;SDS011;18457;52.432;16.914;2023-07-13T09:53:16;7.80;;;5.80;;
31910;SDS011;18457;52.432;16.914;2023-07-13T09:55:49;11.50;;;5.70;;
31910;SDS011;18457;52.432;16.914;2023-07-13T09:58:24;7.80;;;5.20;;
31910;SDS011;18457;52.432;16.914;2023-07-13T10:01:02;7.10;;;5.00;;
31910;SDS011;18457;52.432;16.914;2023-07-13T10:03:38;7.50;;;4.60;;
31910;SDS011;18457;52.432;16.914;2023-07-13T10:06:13;7.80;;;4.90;;
31910;SDS011;18457;52.432;16.914;2023-07-13T10:08:47;8.70;;;5.90;;
31910;SDS011;18457;52.432;16.914;2023-07-13T10:11:22;11.30;;;5.70;;
31910;SDS011;18457;52.432;16.914;2023-07-13T10:13:59;13.90;;;6.50;;
31910;SDS011;18457;52.432;16.914;2023-07-13T10:16:33;18.00;;;5.70;;
31910;SDS011;18457;52.432;16.914;2023-07-13T10:19:07;15.00;;;5.30;;
31910;SDS011;18457;52.432;16.914;2023-07-13T10:21:46;10.00;;;5.40;;
31910;SDS011;18457;52.432;16.914;2023-07-13T10:24:24;13.30;;;6.00;;
31910;SDS011;18457;52.432;16.914;2023-07-13T10:27:01;12.90;;;6.00;;
31910;SDS011;18457;52.432;16.914;2023-07-13T10:29:41;11.30;;;4.80;;
31910;SDS011;18457;52.432;16.914;2023-07-13T10:32:18;9.60;;;5.70;;
31910;SDS011;18457;52.432;16.914;2023-07-13T10:34:53;10.60;;;5.40;;
31910;SDS011;18457;52.432;16.914;2023-07-13T10:37:29;10.60;;;5.60;;
31910;SDS011;18457;52.432;16.914;2023-07-13T10:40:11;7.80;;;5.10;;
31910;SDS011;18457;52.432;16.914;2023-07-13T10:42:49;7.80;;;4.80;;
31910;SDS011;18457;52.432;16.914;2023-07-13T10:45:24;8.20;;;4.70;;
31910;SDS011;18457;52.432;16.914;2023-07-13T10:48:00;5.70;;;4.50;;
31910;SDS011;18457;52.432;16.914;2023-07-13T10:50:34;12.70;;;5.50;;
31910;SDS011;18457;52.432;16.914;2023-07-13T10:53:17;8.30;;;4.50;;
31910;SDS011;18457;52.432;16.914;2023-07-13T10:55:57;9.20;;;4.90;;
31910;SDS011;18457;52.432;16.914;2023-07-13T10:58:33;12.00;;;4.80;;
31910;SDS011;18457;52.432;16.914;2023-07-13T11:01:09;7.90;;;5.70;;
31910;SDS011;18457;52.432;16.914;2023-07-13T11:03:49;6.60;;;5.10;;
31910;SDS011;18457;52.432;16.914;2023-07-13T11:06:34;8.20;;;5.20;;
31910;SDS011;18457;52.432;16.914;2023-07-13T11:09:32;6.70;;;4.90;;
31910;SDS011;18457;52.432;16.914;2023-07-13T11:12:10;9.30;;;4.60;;
31910;SDS011;18457;52.432;16.914;2023-07-13T11:15:05;7.90;;;5.00;;
31910;SDS011;18457;52.432;16.914;2023-07-13T11:17:49;7.60;;;4.70;;
31910;SDS011;18457;52.432;16.914;2023-07-13T11:20:35;7.90;;;5.20;;
31910;SDS011;18457;52.432;16.914;2023-07-13T11:23:16;9.50;;;4.60;;
31910;SDS011;18457;52.432;16.914;2023-07-13T11:25:56;4.70;;;3.70;;
31910;SDS011;18457;52.432;16.914;2023-07-13T11:28:31;5.50;;;4.60;;
31910;SDS011;18457;52.432;16.914;2023-07-13T11:33:53;9.60;;;4.80;;
31910;SDS011;18457;52.432;16.914;2023-07-13T11:36:35;8.10;;;5.20;;
31910;SDS011;18457;52.432;16.914;2023-07-13T11:39:16;7.00;;;5.30;;
31910;SDS011;18457;52.432;16.914;2023-07-13T11:41:53;6.80;;;4.50;;
31910;SDS011;18457;52.432;16.914;2023-07-13T11:44:28;8.40;;;4.40;;
31910;SDS011;18457;52.432;16.914;2023-07-13T11:47:09;8.50;;;4.30;;
31910;SDS011;18457;52.432;16.914;2023-07-13T11:49:45;6.30;;;4.10;;
31910;SDS011;18457;52.432;16.914;2023-07-13T11:52:22;6.30;;;3.90;;
31910;SDS011;18457;52.432;16.914;2023-07-13T11:55:00;6.00;;;4.00;;
31910;SDS011;18457;52.432;16.914;2023-07-13T11:57:35;6.00;;;3.80;;
31910;SDS011;18457;52.432;16.914;2023-07-13T12:00:13;5.50;;;4.30;;
31910;SDS011;18457;52.432;16.914;2023-07-13T12:02:48;5.30;;;3.60;;
31910;SDS011;18457;52.432;16.914;2023-07-13T12:05:23;6.80;;;2.90;;
31910;SDS011;18457;52.432;16.914;2023-07-13T12:07:55;3.70;;;2.70;;
31910;SDS011;18457;52.432;16.914;2023-07-13T12:10:27;4.60;;;2.70;;
31910;SDS011;18457;52.432;16.914;2023-07-13T12:13:03;5.40;;;2.90;;
31910;SDS011;18457;52.432;16.914;2023-07-13T12:15:36;4.80;;;3.00;;
31910;SDS011;18457;52.432;16.914;2023-07-13T12:18:14;3.80;;;2.90;;
31910;SDS011;18457;52.432;16.914;2023-07-13T12:20:49;3.50;;;3.00;;
31910;SDS011;18457;52.432;16.914;2023-07-13T12:23:24;3.60;;;2.50;;
31910;SDS011;18457;52.432;16.914;2023-07-13T12:26:00;5.70;;;2.30;;
31910;SDS011;18457;52.432;16.914;2023-07-13T12:28:35;7.20;;;2.40;;
31910;SDS011;18457;52.432;16.914;2023-07-13T12:31:24;4.00;;;2.20;;
31910;SDS011;18457;52.432;16.914;2023-07-13T12:34:02;4.70;;;2.50;;
31910;SDS011;18457;52.432;16.914;2023-07-13T12:36:38;5.20;;;2.80;;
31910;SDS011;18457;52.432;16.914;2023-07-13T12:39:19;4.40;;;2.70;;
31910;SDS011;18457;52.432;16.914;2023-07-13T12:41:53;5.80;;;2.80;;
31910;SDS011;18457;52.432;16.914;2023-07-13T12:44:41;5.30;;;2.60;;
31910;SDS011;18457;52.432;16.914;2023-07-13T12:47:14;3.00;;;2.70;;
31910;SDS011;18457;52.432;16.914;2023-07-13T12:49:49;5.20;;;2.60;;
31910;SDS011;18457;52.432;16.914;2023-07-13T12:52:27;5.00;;;2.60;;
31910;SDS011;18457;52.432;16.914;2023-07-13T12:55:05;4.30;;;2.50;;
31910;SDS011;18457;52.432;16.914;2023-07-13T12:57:46;7.10;;;2.70;;
31910;SDS011;18457;52.432;16.914;2023-07-13T13:00:26;4.20;;;2.60;;
31910;SDS011;18457;52.432;16.914;2023-07-13T13:03:05;5.40;;;2.70;;
31910;SDS011;18457;52.432;16.914;2023-07-13T13:05:59;3.70;;;2.30;;
31910;SDS011;18457;52.432;16.914;2023-07-13T13:08:34;6.10;;;2.70;;
31910;SDS011;18457;52.432;16.914;2023-07-13T13:11:06;5.10;;;2.20;;
31910;SDS011;18457;52.432;16.914;2023-07-13T13:13:38;7.80;;;3.00;;
31910;SDS011;18457;52.432;16.914;2023-07-13T13:16:11;3.20;;;2.50;;
31910;SDS011;18457;52.432;16.914;2023-07-13T13:18:47;7.10;;;2.40;;
31910;SDS011;18457;52.432;16.914;2023-07-13T13:21:20;9.40;;;3.00;;
31910;SDS011;18457;52.432;16.914;2023-07-13T13:23:54;5.60;;;2.40;;
31910;SDS011;18457;52.432;16.914;2023-07-13T13:26:27;3.00;;;2.00;;
31910;SDS011;18457;52.432;16.914;2023-07-13T13:29:00;2.90;;;2.00;;
31910;SDS011;18457;52.432;16.914;2023-07-13T13:31:34;2.70;;;2.50;;
31910;SDS011;18457;52.432;16.914;2023-07-13T13:34:08;6.40;;;2.30;;
31910;SDS011;18457;52.432;16.914;2023-07-13T13:36:43;6.30;;;2.40;;
31910;SDS011;18457;52.432;16.914;2023-07-13T13:39:21;4.50;;;2.20;;
31910;SDS011;18457;52.432;16.914;2023-07-13T13:41:54;5.70;;;2.50;;
31910;SDS011;18457;52.432;16.914;2023-07-13T13:44:26;3.30;;;2.30;;
31910;SDS011;18457;52.432;16.914;2023-07-13T13:46:58;8.00;;;2.20;;
31910;SDS011;18457;52.432;16.914;2023-07-13T13:49:31;3.90;;;2.30;;
31910;SDS011;18457;52.432;16.914;2023-07-13T13:52:08;3.60;;;1.90;;
31910;SDS011;18457;52.432;16.914;2023-07-13T13:54:41;2.60;;;2.00;;
31910;SDS011;18457;52.432;16.914;2023-07-13T13:57:14;6.00;;;2.50;;
31910;SDS011;18457;52.432;16.914;2023-07-13T13:59:45;5.00;;;2.20;;
31910;SDS011;18457;52.432;16.914;2023-07-13T14:02:21;5.90;;;2.30;;
31910;SDS011;18457;52.432;16.914;2023-07-13T14:04:59;4.20;;;2.40;;
31910;SDS011;18457;52.432;16.914;2023-07-13T14:07:33;2.90;;;2.20;;
31910;SDS011;18457;52.432;16.914;2023-07-13T14:10:10;6.20;;;2.40;;
31910;SDS011;18457;52.432;16.914;2023-07-13T14:12:44;6.60;;;2.50;;
31910;SDS011;18457;52.432;16.914;2023-07-13T14:15:20;2.80;;;2.00;;
31910;SDS011;18457;52.432;16.914;2023-07-13T14:17:53;8.10;;;2.60;;
31910;SDS011;18457;52.432;16.914;2023-07-13T14:20:26;6.30;;;2.20;;
31910;SDS011;18457;52.432;16.914;2023-07-13T14:22:59;6.10;;;2.40;;
31910;SDS011;18457;52.432;16.914;2023-07-13T14:25:31;8.80;;;2.50;;
31910;SDS011;18457;52.432;16.914;2023-07-13T14:28:10;2.60;;;2.30;;
31910;SDS011;18457;52.432;16.914;2023-07-13T14:30:50;3.20;;;2.30;;
31910;SDS011;18457;52.432;16.914;2023-07-13T14:33:23;6.90;;;2.10;;
31910;SDS011;18457;52.432;16.914;2023-07-13T14:35:56;11.40;;;3.20;;
31910;SDS011;18457;52.432;16.914;2023-07-13T14:38:28;4.10;;;2.50;;
31910;SDS011;18457;52.432;16.914;2023-07-13T14:41:01;6.00;;;2.20;;
31910;SDS011;18457;52.432;16.914;2023-07-13T14:43:34;3.90;;;2.00;;
31910;SDS011;18457;52.432;16.914;2023-07-13T14:46:07;4.90;;;2.40;;
31910;SDS011;18457;52.432;16.914;2023-07-13T14:48:48;7.80;;;2.10;;
31910;SDS011;18457;52.432;16.914;2023-07-13T14:53:51;2.40;;;2.20;;
31910;SDS011;18457;52.432;16.914;2023-07-13T14:56:23;5.80;;;2.40;;
31910;SDS011;18457;52.432;16.914;2023-07-13T14:58:56;5.70;;;2.70;;
31910;SDS011;18457;52.432;16.914;2023-07-13T15:01:29;5.40;;;2.00;;
31910;SDS011;18457;52.432;16.914;2023-07-13T15:04:01;3.90;;;1.90;;
31910;SDS011;18457;52.432;16.914;2023-07-13T15:06:46;3.70;;;1.90;;
31910;SDS011;18457;52.432;16.914;2023-07-13T15:09:24;3.30;;;2.50;;
31910;SDS011;18457;52.432;16.914;2023-07-13T15:11:58;4.20;;;2.40;;
31910;SDS011;18457;52.432;16.914;2023-07-13T15:14:30;3.40;;;2.20;;
31910;SDS011;18457;52.432;16.914;2023-07-13T15:19:33;4.50;;;2.60;;
31910;SDS011;18457;52.432;16.914;2023-07-13T15:22:07;4.10;;;2.20;;
31910;SDS011;18457;52.432;16.914;2023-07-13T15:24:40;7.20;;;3.40;;
31910;SDS011;18457;52.432;16.914;2023-07-13T15:29:43;8.50;;;2.40;;
31910;SDS011;18457;52.432;16.914;2023-07-13T15:32:16;4.60;;;2.10;;
31910;SDS011;18457;52.432;16.914;2023-07-13T15:34:49;4.90;;;3.00;;